Latest Weather Observations for Marree Airport

IDS60801

Issued at 12:32 pm CDT Saturday 20 December 2014 (issued every 30 minutes, with the page automatically refreshed every 10 minutes)

About weather observations | Map of weather stations | Latest weather observations for SA | Other Formats
Station Details ID: 017126 Name: MARREE AERO Lat: -29.66 Lon: 138.07 Height: 50.0 m
Data from the previous 72 hours. | See also: Recent months for locations in South Australia
Date/Time
CDT
Temp
°C
App
Temp
°C
Dew
Point
Rel
Hum
%
Delta-T
°C
Wind Press
QNH
hPa
Press
MSL
hPa
Rain
since 9 am
mm
Dir
 
Spd
km/h
Gust
km/h
Spd
kts
Gust
kts
20/12:30pm 32.7 28.2 -0.4 12 16.0 ENE 13 30 7 16 1015.2 - 0.0
20/12:00pm 32.0 25.7 -0.9 12 15.7 ENE 22 32 12 17 1015.4 1015.1 0.0
20/11:30am 31.6 24.7 -0.1 13 15.3 ENE 26 39 14 21 1015.8 - 0.0
20/11:00am 30.8 23.8 -0.8 13 15.0 E 26 39 14 21 1016.1 - 0.0
20/10:30am 30.4 23.1 -0.1 14 14.6 E 28 41 15 22 1016.3 - 0.0
20/10:00am 29.4 21.4 0.1 15 14.0 E 32 39 17 21 1016.5 - 0.0
20/09:30am 28.7 20.5 0.4 16 13.5 E 33 43 18 23 1016.8 - 0.0
20/09:00am 27.6 19.4 0.4 17 12.9 E 33 43 18 23 1016.8 1016.5 0.0
20/08:30am 26.4 18.4 0.2 18 12.2 E 32 41 17 22 1017.0 - 0.0
20/08:00am 24.4 17.8 -0.7 19 11.3 ESE 24 30 13 16 1017.0 - 0.0
20/07:30am 21.3 16.8 -0.6 23 9.7 SE 13 15 7 8 1016.8 - 0.0
20/07:00am 19.3 14.7 -0.7 26 8.7 SSE 13 15 7 8 1016.5 - 0.0
20/06:30am 17.5 12.6 -0.2 30 7.6 SSE 15 15 8 8 1016.1 - 0.0
20/06:00am 17.2 12.5 0.8 33 7.2 SE 15 17 8 9 1015.9 1015.6 0.0
20/05:30am 17.5 12.9 1.5 34 7.1 SSE 15 17 8 9 1016.0 - 0.0
20/05:00am 17.7 13.5 1.7 34 7.2 SSE 13 13 7 7 1015.6 - 0.0
20/04:30am 18.3 14.1 1.8 33 7.5 SSE 13 15 7 8 1015.2 - 0.0
20/04:00am 18.8 14.2 1.3 31 7.9 SSE 15 19 8 10 1015.1 - 0.0
20/03:30am 19.7 15.2 2.1 31 8.1 SSE 15 17 8 9 1015.1 - 0.0
20/03:00am 20.4 16.5 1.3 28 8.7 S 11 13 6 7 1015.0 1014.7 0.0
20/02:30am 21.3 16.6 1.0 26 9.3 S 15 17 8 9 1015.0 - 0.0
20/02:00am 21.8 17.0 0.4 24 9.7 S 15 17 8 9 1015.3 - 0.0
20/01:30am 22.3 17.7 -1.1 21 10.3 SSE 13 15 7 8 1015.5 - 0.0
20/01:00am 23.6 18.6 -1.3 19 11.1 SSE 15 17 8 9 1015.6 - 0.0
20/12:30am 25.4 18.8 -0.6 18 11.9 SE 24 30 13 16 1015.6 - 0.0
20/12:00am 23.4 17.3 -3.8 16 11.5 SSE 19 20 10 11 1015.7 1015.4 0.0
 
Date/Time
CDT
Temp
°C
App
Temp
°C
Dew
Point
Rel
Hum
%
Delta-T
°C
Wind Press
QNH
hPa
Press
MSL
hPa
Rain
since 9 am
mm
Dir
 
Spd
km/h
Gust
km/h
Spd
kts
Gust
kts
19/11:30pm 25.0 19.6 -4.3 14 12.5 S 15 17 8 9 1015.6 - 0.0
19/11:00pm 25.7 19.8 -5.8 12 13.1 S 17 17 9 9 1015.6 - 0.0
19/10:30pm 25.4 19.9 -5.0 13 12.8 S 15 17 8 9 1015.5 - 0.0
19/10:00pm 26.5 21.0 -5.2 12 13.4 SSW 15 17 8 9 1015.4 - 0.0
19/09:30pm 27.7 21.7 -6.6 10 14.3 SSW 17 19 9 10 1015.3 - 0.0
19/09:00pm 28.7 22.8 -5.9 10 14.8 SSW 17 20 9 11 1015.1 1014.8 0.0
19/08:30pm 29.9 23.5 -6.4 9 15.5 S 19 24 10 13 1015.0 - 0.0
19/08:00pm 30.8 23.2 -5.7 9 15.9 SSW 26 33 14 18 1014.8 - 0.0
19/07:30pm 32.1 25.0 -4.7 9 16.5 SSW 24 33 13 18 1014.6 - 0.0
19/07:00pm 32.6 25.5 -4.3 9 16.7 SSW 24 33 13 18 1014.2 - 0.0
19/06:30pm 33.2 25.8 -3.9 9 17.0 SSW 26 37 14 20 1013.9 - 0.0
19/06:00pm 33.7 26.7 -3.5 9 17.2 SW 24 32 13 17 1013.7 1013.3 0.0
19/05:30pm 34.5 27.9 -2.9 9 17.6 SSW 22 33 12 18 1013.8 - 0.0
19/05:00pm 34.3 27.7 -3.1 9 17.5 SSW 22 35 12 19 1013.9 - 0.0
19/04:30pm 34.0 28.9 -1.9 10 17.1 S 15 35 8 19 1014.2 - 0.0
19/04:00pm 34.9 29.5 -1.2 10 17.5 SW 17 28 9 15 1014.5 - 0.0
19/03:30pm 34.4 27.8 -0.3 11 17.0 WSW 24 33 13 18 1014.8 - 0.0
19/03:00pm 34.3 27.9 3.0 14 16.2 SW 26 33 14 18 1015.2 1014.9 0.0
19/02:30pm 33.7 29.6 4.4 16 15.4 W 15 26 8 14 1015.6 - 0.0
19/02:00pm 32.4 28.8 5.0 18 14.5 W 13 28 7 15 1016.0 - 0.0
19/01:30pm 32.8 29.7 5.4 18 14.6 N 11 20 6 11 1016.5 - 0.0
19/01:00pm 31.9 29.2 5.4 19 14.1 S 9 17 5 9 1017.0 - 0.0
19/12:30pm 30.0 27.2 5.3 21 12.9 SSW 9 19 5 10 1017.4 - 0.0
19/12:00pm 29.7 26.8 6.4 23 12.4 SW 11 17 6 9 1017.6 1017.3 0.0
19/11:30am 29.0 27.4 6.4 24 12.0 E 4 13 2 7 1017.6 - 0.0
19/11:00am 28.1 24.8 6.2 25 11.5 S 13 20 7 11 1017.6 - 0.0
19/10:30am 27.1 23.7 6.0 26 11.0 SSE 13 20 7 11 1017.7 - 0.0
19/10:00am 26.6 22.5 6.1 27 10.7 SE 17 22 9 12 1017.8 - 0.0
19/09:30am 26.0 21.9 6.1 28 10.3 SE 17 24 9 13 1017.9 - 0.0
19/09:00am 24.7 20.1 6.4 31 9.5 SE 20 26 11 14 1017.7 1017.4 0.0
19/08:30am 24.3 18.7 7.0 33 9.0 SSE 26 30 14 16 1017.3 - 0.0
19/08:00am 22.8 17.2 7.0 36 8.2 S 26 32 14 17 1016.8 - 0.0
19/07:30am 21.7 16.4 6.8 38 7.6 S 24 30 13 16 1016.4 - 0.0
19/07:00am 20.8 15.6 7.1 41 7.0 S 24 30 13 16 1015.9 - 0.0
19/06:30am 20.2 15.8 7.6 44 6.5 S 20 24 11 13 1015.6 - 0.0
19/06:00am 20.3 16.2 7.7 44 6.5 S 19 22 10 12 1015.1 1014.8 0.0
19/05:30am 20.8 16.1 7.8 43 6.7 SSE 22 28 12 15 1014.8 - 0.0
19/05:00am 21.3 16.3 7.9 42 7.0 SSE 24 30 13 16 1014.3 - 0.0
19/04:30am 21.9 15.2 8.1 41 7.2 S 33 39 18 21 1013.7 - 0.0
19/04:00am 22.4 15.9 8.1 40 7.5 S 32 41 17 22 1013.7 - 0.0
19/03:30am 23.1 17.3 8.0 38 8.0 S 28 35 15 19 1013.6 - 0.0
19/03:00am 24.0 18.3 8.4 37 8.3 S 28 33 15 18 1013.5 1013.1 0.0
19/02:30am 24.6 18.8 8.1 35 8.8 S 28 35 15 19 1013.4 - 0.0
19/02:00am 25.2 19.0 7.8 33 9.3 S 30 37 16 20 1013.4 - 0.0
19/01:30am 26.0 19.4 7.6 31 9.8 S 32 39 17 21 1013.3 - 0.0
19/01:00am 27.0 21.0 5.3 25 11.2 S 26 32 14 17 1013.3 - 0.0
19/12:30am 27.7 22.7 4.7 23 11.8 S 20 26 11 14 1013.2 - 0.0
19/12:00am 28.4 22.6 4.6 22 12.2 S 24 28 13 15 1013.1 1012.7 0.0
 
Date/Time
CDT
Temp
°C
App
Temp
°C
Dew
Point
Rel
Hum
%
Delta-T
°C
Wind Press
QNH
hPa
Press
MSL
hPa
Rain
since 9 am
mm
Dir
 
Spd
km/h
Gust
km/h
Spd
kts
Gust
kts
18/11:30pm 29.1 22.2 4.6 21 12.6 S 30 35 16 19 1012.5 - 0.0
18/11:00pm 29.5 22.5 4.2 20 13.0 S 30 37 16 20 1012.3 - 0.0
18/10:30pm 30.1 22.7 4.0 19 13.4 S 32 39 17 21 1011.7 - 0.0
18/10:00pm 30.6 24.1 2.8 17 14.0 S 26 30 14 16 1011.5 - 0.0
18/09:30pm 31.1 25.5 3.2 17 14.2 S 22 28 12 15 1011.4 - 0.0
18/09:00pm 32.1 24.4 2.2 15 15.1 S 32 39 17 21 1011.1 1010.7 0.0
18/08:30pm 32.8 26.3 2.8 15 15.3 S 26 32 14 17 1010.9 - 0.0
18/08:00pm 33.7 25.8 2.5 14 15.9 S 33 44 18 24 1010.3 - 0.0
18/07:30pm 34.7 27.0 2.3 13 16.6 S 32 41 17 22 1010.1 - 0.0
18/07:00pm 35.4 29.1 1.7 12 17.2 SSW 24 33 13 18 1009.8 - 0.0
18/06:30pm 35.9 28.4 0.9 11 17.7 SW 30 43 16 23 1009.7 - 0.0
18/06:26pm 36.0 28.5 0.9 11 17.7 SW 30 43 16 23 1009.5 - 0.0
18/06:00pm 36.6 32.7 1.4 11 18.0 WSW 11 20 6 11 1009.5 1009.2 0.0
18/05:30pm 36.5 30.5 1.3 11 17.9 W 22 39 12 21 1009.4 - 0.0
18/05:00pm 36.5 32.2 1.3 11 17.9 SSW 13 30 7 16 1009.4 - 0.0
18/04:30pm 37.4 31.7 0.7 10 18.6 SW 20 33 11 18 1009.5 - 0.0
18/04:00pm 37.3 30.8 0.6 10 18.6 SW 24 39 13 21 1009.6 - 0.0
18/03:30pm 36.6 31.2 1.4 11 18.0 W 19 35 10 19 1009.8 - 0.0
18/03:00pm 37.4 31.7 0.7 10 18.7 W 20 30 11 16 1009.7 1009.4 0.0
18/02:30pm 37.0 30.5 0.4 10 18.5 W 24 44 13 24 1009.8 - 0.0
18/02:00pm 36.4 31.2 -0.1 10 18.2 WSW 17 32 9 17 1009.9 - 0.0
18/01:30pm 36.6 31.0 1.4 11 18.0 WSW 20 33 11 18 1010.2 - 0.0
18/01:00pm 35.7 30.6 0.7 11 17.6 SW 17 28 9 15 1010.6 - 0.0
18/12:30pm 35.2 31.2 0.3 11 17.4 WNW 11 26 6 14 1010.8 - 0.0
18/12:00pm 35.0 31.7 0.2 11 17.3 W 7 15 4 8 1010.9 1010.5 0.0
18/11:30am 34.2 30.8 -0.4 11 16.9 S 7 17 4 9 1010.9 - 0.0
18/11:00am 33.4 28.6 0.1 12 16.3 S 15 24 8 13 1010.9 - 0.0
18/10:30am 31.3 27.3 0.6 14 15.0 SE 11 17 6 9 1011.1 - 0.0
18/10:00am 31.1 26.5 1.4 15 14.7 SE 15 24 8 13 1011.0 - 0.0
18/09:30am 29.8 25.3 2.1 17 13.7 SSE 15 19 8 10 1011.0 - 0.0
18/09:00am 27.8 23.2 3.5 21 12.2 SSE 17 20 9 11 1010.8 1010.4 0.0
18/08:30am 26.5 21.8 3.1 22 11.5 SSE 17 20 9 11 1010.5 - 0.0
18/08:00am 25.5 21.0 2.2 22 11.2 SSE 15 19 8 10 1010.1 - 0.0
18/07:30am 25.2 20.7 0.0 19 11.6 SE 13 17 7 9 1009.6 - 0.0
18/07:00am 24.4 20.6 -0.7 19 11.4 SSE 9 11 5 6 1009.0 - 0.0
18/06:30am 24.4 20.1 -1.4 18 11.5 SSE 11 13 6 7 1008.7 - 0.0
18/06:00am 24.2 20.0 -0.9 19 11.3 S 11 13 6 7 1008.7 1008.4 0.0
18/05:30am 24.6 20.0 -1.3 18 11.6 SSE 13 15 7 8 1008.2 - 0.0
18/05:00am 24.8 21.0 -0.4 19 11.5 SE 9 9 5 5 1008.0 - 0.0
18/04:30am 25.5 21.7 -0.5 18 11.9 SSE 9 9 5 5 1007.5 - 0.0
18/04:00am 26.3 22.9 -0.7 17 12.4 S 7 9 4 5 1007.4 - 0.0
18/03:30am 27.0 22.4 -0.9 16 12.8 SSW 13 17 7 9 1007.5 - 0.0
18/03:00am 26.9 21.5 -1.0 16 12.8 SW 17 19 9 10 1007.7 1007.4 0.0
18/02:30am 27.0 22.0 -0.9 16 12.8 SSW 15 17 8 9 1007.6 - 0.0
18/02:00am 27.5 23.2 -1.4 15 13.2 S 11 13 6 7 1007.2 - 0.0
18/01:30am 27.2 22.5 -1.7 15 13.1 S 13 15 7 8 1006.8 - 0.0
18/01:00am 27.7 23.1 -1.3 15 13.3 S 13 17 7 9 1006.8 - 0.0
18/12:30am 27.9 23.2 -2.0 14 13.6 S 13 15 7 8 1006.8 - 0.0
18/12:00am 27.7 23.3 -2.2 14 13.6 S 11 13 6 7 1006.7 1006.4 0.0
 
Date/Time
CDT
Temp
°C
App
Temp
°C
Dew
Point
Rel
Hum
%
Delta-T
°C
Wind Press
QNH
hPa
Press
MSL
hPa
Rain
since 9 am
mm
Dir
 
Spd
km/h
Gust
km/h
Spd
kts
Gust
kts
17/11:30pm 27.8 23.8 -2.1 14 13.6 SSE 9 11 5 6 1007.0 - 0.0
17/11:00pm 28.0 23.5 -3.0 13 13.9 S 11 11 6 6 1007.1 - 0.0
17/10:30pm 28.9 24.1 -2.3 13 14.2 S 13 15 7 8 1006.7 - 0.0
17/10:00pm 29.8 24.6 -2.6 12 14.8 S 15 15 8 8 1006.6 - 0.0
17/09:30pm 30.8 25.6 -3.0 11 15.4 S 15 19 8 10 1006.5 - 0.0
17/09:00pm 31.4 25.7 -3.8 10 16.0 SSW 17 19 9 10 1006.4 1006.1 0.0
17/08:30pm 32.0 26.3 -3.4 10 16.2 SSW 17 22 9 12 1006.0 - 0.0
17/08:00pm 32.5 25.8 -4.4 9 16.7 SSW 22 28 12 15 1005.6 - 0.0
17/07:30pm 33.3 26.1 -5.4 8 17.3 SW 24 30 13 16 1005.3 - 0.0
17/07:00pm 34.1 27.9 -4.8 8 17.7 SW 19 28 10 15 1004.8 - 0.0
17/06:30pm 34.5 28.0 -6.3 7 18.1 SW 20 28 11 15 1004.4 - 0.0
17/06:00pm 35.2 28.9 -5.7 7 18.5 W 19 22 10 12 1004.2 1003.9 0.0
17/05:30pm 34.2 28.6 -6.5 7 18.0 SSW 15 26 8 14 1004.5 - 0.0
17/05:00pm 35.3 30.5 -5.7 7 18.5 W 11 19 6 10 1004.8 - 0.0
17/04:30pm 34.6 29.4 -6.2 7 18.2 WNW 13 22 7 12 1005.1 - 0.0
17/04:00pm 34.8 29.6 -6.0 7 18.3 SSW 13 20 7 11 1005.7 - 0.0
17/03:30pm 33.6 28.9 -5.2 8 17.5 SW 11 19 6 10 1006.1 - 0.0
17/03:00pm 33.2 28.2 -3.9 9 17.0 S 13 20 7 11 1006.2 1005.9 0.0
17/02:30pm 33.1 28.7 -2.6 10 16.7 W 11 24 6 13 1006.8 - 0.0
17/02:00pm 31.8 27.4 -2.3 11 15.9 W 11 17 6 9 1007.4 - 0.0
17/01:30pm 31.4 27.7 -0.3 13 15.2 SW 9 20 5 11 1008.0 - 0.0
17/01:00pm 30.3 26.3 0.8 15 14.3 WSW 11 24 6 13 1008.4 - 0.0

Other Formats:

Comma delimited format used in spreadsheet applications
http://www.bom.gov.au/fwo/IDS60801/IDS60801.95480.axf

JavaScript Object Notation format (JSON) in row-major order
http://www.bom.gov.au/fwo/IDS60801/IDS60801.95480.json